Terminal Aerodrome Forecast
Issued by NWS

Home | Current Version | Previous Version | Text Only | Print | Product List | Glossary On
Versions: 1 2 3 4 5 6 7 8 9 10 11 12 13 14 15 16 17 18 19 20 21 22 23 24 25 26
517
FTUS42 KGSP 081135
TAFHKY
TAF
KHKY 081135Z 0812/0912 20003KT P6SM SCT110
     FM081600 19004KT P6SM VCSH FEW035 BKN060
      TEMPO 0818/0822 5SM -SHRA OVC030
     FM090000 27006KT P6SM SCT050 BKN090=

USA.gov is the U.S. government's official web portal to all federal, state and local government web resources and services.